sensor_id;sensor_type;location;lat;lon;timestamp;P1;durP1;ratioP1;P2;durP2;ratioP2
26086;SDS011;13851;43.434;28.338;2022-10-16T00:01:06;9.73;;;5.70;;
26086;SDS011;13851;43.434;28.338;2022-10-16T00:03:38;7.38;;;5.32;;
26086;SDS011;13851;43.434;28.338;2022-10-16T00:06:04;7.85;;;5.40;;
26086;SDS011;13851;43.434;28.338;2022-10-16T00:08:30;8.63;;;5.07;;
26086;SDS011;13851;43.434;28.338;2022-10-16T00:11:03;7.63;;;4.80;;
26086;SDS011;13851;43.434;28.338;2022-10-16T00:13:36;9.50;;;5.38;;
26086;SDS011;13851;43.434;28.338;2022-10-16T00:16:03;9.07;;;5.32;;
26086;SDS011;13851;43.434;28.338;2022-10-16T00:18:29;11.55;;;5.60;;
26086;SDS011;13851;43.434;28.338;2022-10-16T00:20:55;5.80;;;4.60;;
26086;SDS011;13851;43.434;28.338;2022-10-16T00:23:26;6.97;;;5.25;;
26086;SDS011;13851;43.434;28.338;2022-10-16T00:25:58;7.78;;;4.65;;
26086;SDS011;13851;43.434;28.338;2022-10-16T00:28:26;6.82;;;4.55;;
26086;SDS011;13851;43.434;28.338;2022-10-16T00:30:52;6.70;;;4.45;;
26086;SDS011;13851;43.434;28.338;2022-10-16T00:33:18;8.55;;;5.20;;
26086;SDS011;13851;43.434;28.338;2022-10-16T00:35:43;6.55;;;5.05;;
26086;SDS011;13851;43.434;28.338;2022-10-16T00:38:09;7.18;;;4.70;;
26086;SDS011;13851;43.434;28.338;2022-10-16T00:40:35;7.97;;;4.57;;
26086;SDS011;13851;43.434;28.338;2022-10-16T00:43:00;6.50;;;4.53;;
26086;SDS011;13851;43.434;28.338;2022-10-16T00:45:26;4.90;;;4.18;;
26086;SDS011;13851;43.434;28.338;2022-10-16T00:47:52;5.63;;;4.10;;
26086;SDS011;13851;43.434;28.338;2022-10-16T00:52:56;8.77;;;4.53;;
26086;SDS011;13851;43.434;28.338;2022-10-16T00:55:23;7.38;;;4.80;;
26086;SDS011;13851;43.434;28.338;2022-10-16T00:57:49;7.13;;;4.57;;
26086;SDS011;13851;43.434;28.338;2022-10-16T01:00:17;5.97;;;4.13;;
26086;SDS011;13851;43.434;28.338;2022-10-16T01:02:51;5.90;;;3.83;;
26086;SDS011;13851;43.434;28.338;2022-10-16T01:05:17;7.05;;;4.45;;
26086;SDS011;13851;43.434;28.338;2022-10-16T01:07:53;6.10;;;3.72;;
26086;SDS011;13851;43.434;28.338;2022-10-16T01:15:37;6.32;;;3.97;;
26086;SDS011;13851;43.434;28.338;2022-10-16T01:18:08;5.07;;;3.78;;
26086;SDS011;13851;43.434;28.338;2022-10-16T01:20:44;4.22;;;3.83;;
26086;SDS011;13851;43.434;28.338;2022-10-16T01:31:33;4.25;;;3.83;;
26086;SDS011;13851;43.434;28.338;2022-10-16T01:34:03;6.07;;;3.80;;
26086;SDS011;13851;43.434;28.338;2022-10-16T01:36:36;5.55;;;3.95;;
26086;SDS011;13851;43.434;28.338;2022-10-16T01:39:08;4.75;;;3.75;;
26086;SDS011;13851;43.434;28.338;2022-10-16T01:41:40;5.72;;;3.80;;
26086;SDS011;13851;43.434;28.338;2022-10-16T01:46:45;5.82;;;4.50;;
26086;SDS011;13851;43.434;28.338;2022-10-16T01:49:15;5.35;;;4.25;;
26086;SDS011;13851;43.434;28.338;2022-10-16T01:51:43;6.97;;;6.28;;
26086;SDS011;13851;43.434;28.338;2022-10-16T01:54:11;6.50;;;4.68;;
26086;SDS011;13851;43.434;28.338;2022-10-16T01:56:39;6.88;;;4.95;;
26086;SDS011;13851;43.434;28.338;2022-10-16T01:59:23;6.38;;;5.00;;
26086;SDS011;13851;43.434;28.338;2022-10-16T02:01:55;6.13;;;5.35;;
26086;SDS011;13851;43.434;28.338;2022-10-16T02:04:29;7.43;;;5.55;;
26086;SDS011;13851;43.434;28.338;2022-10-16T02:06:58;6.25;;;5.35;;
26086;SDS011;13851;43.434;28.338;2022-10-16T02:09:24;7.13;;;5.20;;
26086;SDS011;13851;43.434;28.338;2022-10-16T02:11:51;7.55;;;5.57;;
26086;SDS011;13851;43.434;28.338;2022-10-16T02:14:20;7.10;;;5.97;;
26086;SDS011;13851;43.434;28.338;2022-10-16T02:16:49;7.15;;;6.18;;
26086;SDS011;13851;43.434;28.338;2022-10-16T02:19:15;6.63;;;5.55;;
26086;SDS011;13851;43.434;28.338;2022-10-16T02:21:54;7.60;;;6.60;;
26086;SDS011;13851;43.434;28.338;2022-10-16T02:27:02;11.75;;;6.65;;
26086;SDS011;13851;43.434;28.338;2022-10-16T02:29:33;7.38;;;6.38;;
26086;SDS011;13851;43.434;28.338;2022-10-16T02:32:06;9.13;;;6.80;;
26086;SDS011;13851;43.434;28.338;2022-10-16T02:34:35;6.72;;;5.97;;
26086;SDS011;13851;43.434;28.338;2022-10-16T02:37:02;8.15;;;4.88;;
26086;SDS011;13851;43.434;28.338;2022-10-16T02:39:30;7.35;;;4.63;;
26086;SDS011;13851;43.434;28.338;2022-10-16T02:41:56;6.50;;;4.47;;
26086;SDS011;13851;43.434;28.338;2022-10-16T02:44:22;4.13;;;3.72;;
26086;SDS011;13851;43.434;28.338;2022-10-16T02:46:47;6.50;;;4.10;;
26086;SDS011;13851;43.434;28.338;2022-10-16T02:49:13;4.20;;;3.80;;
26086;SDS011;13851;43.434;28.338;2022-10-16T02:51:38;3.88;;;3.47;;
26086;SDS011;13851;43.434;28.338;2022-10-16T02:54:03;5.50;;;3.60;;
26086;SDS011;13851;43.434;28.338;2022-10-16T02:56:29;7.30;;;3.80;;
26086;SDS011;13851;43.434;28.338;2022-10-16T02:58:55;8.27;;;3.67;;
26086;SDS011;13851;43.434;28.338;2022-10-16T03:01:22;6.15;;;3.60;;
26086;SDS011;13851;43.434;28.338;2022-10-16T03:03:48;5.40;;;3.92;;
26086;SDS011;13851;43.434;28.338;2022-10-16T03:06:14;6.20;;;4.57;;
26086;SDS011;13851;43.434;28.338;2022-10-16T03:08:39;7.70;;;4.25;;
26086;SDS011;13851;43.434;28.338;2022-10-16T03:11:05;5.00;;;3.72;;
26086;SDS011;13851;43.434;28.338;2022-10-16T03:13:30;4.82;;;4.00;;
26086;SDS011;13851;43.434;28.338;2022-10-16T03:15:56;5.03;;;4.13;;
26086;SDS011;13851;43.434;28.338;2022-10-16T03:18:21;6.18;;;3.72;;
26086;SDS011;13851;43.434;28.338;2022-10-16T03:20:47;7.10;;;4.20;;
26086;SDS011;13851;43.434;28.338;2022-10-16T03:23:12;5.50;;;4.70;;
26086;SDS011;13851;43.434;28.338;2022-10-16T03:25:38;8.85;;;5.53;;
26086;SDS011;13851;43.434;28.338;2022-10-16T03:28:03;6.22;;;4.88;;
26086;SDS011;13851;43.434;28.338;2022-10-16T03:30:30;7.05;;;5.25;;
26086;SDS011;13851;43.434;28.338;2022-10-16T03:32:56;6.93;;;5.72;;
26086;SDS011;13851;43.434;28.338;2022-10-16T03:35:22;6.35;;;5.75;;
26086;SDS011;13851;43.434;28.338;2022-10-16T03:37:48;6.05;;;5.45;;
26086;SDS011;13851;43.434;28.338;2022-10-16T03:40:13;9.73;;;6.63;;
26086;SDS011;13851;43.434;28.338;2022-10-16T03:42:39;8.57;;;6.85;;
26086;SDS011;13851;43.434;28.338;2022-10-16T03:45:05;9.73;;;6.50;;
26086;SDS011;13851;43.434;28.338;2022-10-16T03:47:32;7.65;;;6.82;;
26086;SDS011;13851;43.434;28.338;2022-10-16T03:49:58;9.57;;;7.00;;
26086;SDS011;13851;43.434;28.338;2022-10-16T03:52:24;8.25;;;7.07;;
26086;SDS011;13851;43.434;28.338;2022-10-16T03:54:50;7.57;;;6.68;;
26086;SDS011;13851;43.434;28.338;2022-10-16T03:57:15;7.70;;;6.68;;
26086;SDS011;13851;43.434;28.338;2022-10-16T03:59:41;6.95;;;5.95;;
26086;SDS011;13851;43.434;28.338;2022-10-16T04:02:06;8.38;;;6.63;;
26086;SDS011;13851;43.434;28.338;2022-10-16T04:04:32;6.78;;;5.30;;
26086;SDS011;13851;43.434;28.338;2022-10-16T04:06:57;6.50;;;5.50;;
26086;SDS011;13851;43.434;28.338;2022-10-16T04:09:23;5.60;;;5.10;;
26086;SDS011;13851;43.434;28.338;2022-10-16T04:11:48;7.65;;;4.80;;
26086;SDS011;13851;43.434;28.338;2022-10-16T04:14:14;7.22;;;4.57;;
26086;SDS011;13851;43.434;28.338;2022-10-16T04:16:39;6.88;;;4.47;;
26086;SDS011;13851;43.434;28.338;2022-10-16T04:19:04;8.00;;;5.90;;
26086;SDS011;13851;43.434;28.338;2022-10-16T04:21:30;14.60;;;11.80;;
26086;SDS011;13851;43.434;28.338;2022-10-16T04:23:56;6.07;;;5.28;;
26086;SDS011;13851;43.434;28.338;2022-10-16T04:26:21;10.90;;;5.30;;
26086;SDS011;13851;43.434;28.338;2022-10-16T04:28:46;8.00;;;5.40;;
26086;SDS011;13851;43.434;28.338;2022-10-16T04:31:12;6.30;;;4.72;;
26086;SDS011;13851;43.434;28.338;2022-10-16T04:33:37;6.72;;;5.55;;
26086;SDS011;13851;43.434;28.338;2022-10-16T04:36:03;8.02;;;4.95;;
26086;SDS011;13851;43.434;28.338;2022-10-16T04:38:29;8.13;;;4.93;;
26086;SDS011;13851;43.434;28.338;2022-10-16T04:40:55;6.45;;;5.38;;
26086;SDS011;13851;43.434;28.338;2022-10-16T04:43:21;6.45;;;5.03;;
26086;SDS011;13851;43.434;28.338;2022-10-16T04:45:47;6.88;;;5.22;;
26086;SDS011;13851;43.434;28.338;2022-10-16T04:48:12;8.10;;;4.80;;
26086;SDS011;13851;43.434;28.338;2022-10-16T04:50:38;6.80;;;4.75;;
26086;SDS011;13851;43.434;28.338;2022-10-16T04:53:03;5.57;;;4.95;;
26086;SDS011;13851;43.434;28.338;2022-10-16T04:55:29;5.15;;;4.47;;
26086;SDS011;13851;43.434;28.338;2022-10-16T04:57:55;8.95;;;4.93;;
26086;SDS011;13851;43.434;28.338;2022-10-16T05:00:20;7.10;;;5.10;;
26086;SDS011;13851;43.434;28.338;2022-10-16T05:02:47;6.85;;;5.00;;
26086;SDS011;13851;43.434;28.338;2022-10-16T05:05:14;6.95;;;4.90;;
26086;SDS011;13851;43.434;28.338;2022-10-16T05:07:40;6.55;;;4.55;;
26086;SDS011;13851;43.434;28.338;2022-10-16T05:10:05;7.32;;;4.93;;
26086;SDS011;13851;43.434;28.338;2022-10-16T05:12:31;5.40;;;4.18;;
26086;SDS011;13851;43.434;28.338;2022-10-16T05:14:56;8.10;;;4.10;;
26086;SDS011;13851;43.434;28.338;2022-10-16T05:17:24;8.15;;;5.00;;
26086;SDS011;13851;43.434;28.338;2022-10-16T05:19:50;7.22;;;4.53;;
26086;SDS011;13851;43.434;28.338;2022-10-16T05:22:15;5.90;;;4.60;;
26086;SDS011;13851;43.434;28.338;2022-10-16T05:24:41;9.63;;;4.57;;
26086;SDS011;13851;43.434;28.338;2022-10-16T05:27:06;6.68;;;5.18;;
26086;SDS011;13851;43.434;28.338;2022-10-16T05:29:32;6.75;;;5.75;;
26086;SDS011;13851;43.434;28.338;2022-10-16T05:31:57;6.20;;;4.57;;
26086;SDS011;13851;43.434;28.338;2022-10-16T05:34:24;5.20;;;4.32;;
26086;SDS011;13851;43.434;28.338;2022-10-16T05:36:49;6.30;;;4.20;;
26086;SDS011;13851;43.434;28.338;2022-10-16T05:39:15;6.82;;;4.18;;
26086;SDS011;13851;43.434;28.338;2022-10-16T05:41:41;8.50;;;4.55;;
26086;SDS011;13851;43.434;28.338;2022-10-16T05:44:07;9.02;;;4.40;;
26086;SDS011;13851;43.434;28.338;2022-10-16T05:46:33;6.30;;;4.47;;
26086;SDS011;13851;43.434;28.338;2022-10-16T05:48:58;5.85;;;4.40;;
26086;SDS011;13851;43.434;28.338;2022-10-16T05:51:24;6.50;;;4.38;;
26086;SDS011;13851;43.434;28.338;2022-10-16T05:53:50;5.65;;;4.15;;
26086;SDS011;13851;43.434;28.338;2022-10-16T05:56:16;7.60;;;4.30;;
26086;SDS011;13851;43.434;28.338;2022-10-16T05:58:42;6.47;;;4.25;;
26086;SDS011;13851;43.434;28.338;2022-10-16T06:01:13;6.63;;;4.40;;
26086;SDS011;13851;43.434;28.338;2022-10-16T06:03:40;5.25;;;4.22;;
26086;SDS011;13851;43.434;28.338;2022-10-16T06:06:13;5.90;;;4.10;;
26086;SDS011;13851;43.434;28.338;2022-10-16T06:08:41;4.43;;;3.80;;
26086;SDS011;13851;43.434;28.338;2022-10-16T06:11:10;6.65;;;4.40;;
26086;SDS011;13851;43.434;28.338;2022-10-16T06:13:38;6.75;;;4.18;;
26086;SDS011;13851;43.434;28.338;2022-10-16T06:16:06;8.00;;;4.53;;
26086;SDS011;13851;43.434;28.338;2022-10-16T06:18:31;6.97;;;4.43;;
26086;SDS011;13851;43.434;28.338;2022-10-16T06:20:57;6.75;;;4.50;;
26086;SDS011;13851;43.434;28.338;2022-10-16T06:23:24;7.20;;;4.80;;
26086;SDS011;13851;43.434;28.338;2022-10-16T06:25:49;6.75;;;4.75;;
26086;SDS011;13851;43.434;28.338;2022-10-16T06:28:15;9.98;;;7.45;;
26086;SDS011;13851;43.434;28.338;2022-10-16T06:30:41;6.80;;;4.20;;
26086;SDS011;13851;43.434;28.338;2022-10-16T06:33:09;6.57;;;5.07;;
26086;SDS011;13851;43.434;28.338;2022-10-16T06:35:35;7.65;;;4.82;;
26086;SDS011;13851;43.434;28.338;2022-10-16T06:38:01;7.38;;;4.38;;
26086;SDS011;13851;43.434;28.338;2022-10-16T06:40:27;6.38;;;4.53;;
26086;SDS011;13851;43.434;28.338;2022-10-16T06:42:54;5.95;;;4.03;;
26086;SDS011;13851;43.434;28.338;2022-10-16T06:45:20;8.23;;;4.53;;
26086;SDS011;13851;43.434;28.338;2022-10-16T06:47:45;11.48;;;4.93;;
26086;SDS011;13851;43.434;28.338;2022-10-16T06:50:11;7.80;;;4.20;;
26086;SDS011;13851;43.434;28.338;2022-10-16T06:52:36;8.57;;;5.43;;
26086;SDS011;13851;43.434;28.338;2022-10-16T06:55:02;9.30;;;4.53;;
26086;SDS011;13851;43.434;28.338;2022-10-16T06:57:28;6.03;;;3.95;;
26086;SDS011;13851;43.434;28.338;2022-10-16T06:59:54;5.53;;;4.57;;
26086;SDS011;13851;43.434;28.338;2022-10-16T07:02:19;9.30;;;4.50;;
26086;SDS011;13851;43.434;28.338;2022-10-16T07:04:45;9.93;;;4.07;;
26086;SDS011;13851;43.434;28.338;2022-10-16T07:07:10;7.60;;;5.00;;
26086;SDS011;13851;43.434;28.338;2022-10-16T07:09:35;6.82;;;4.32;;
26086;SDS011;13851;43.434;28.338;2022-10-16T07:12:01;6.55;;;4.68;;
26086;SDS011;13851;43.434;28.338;2022-10-16T07:14:27;7.50;;;3.85;;
26086;SDS011;13851;43.434;28.338;2022-10-16T07:16:52;6.20;;;4.18;;
26086;SDS011;13851;43.434;28.338;2022-10-16T07:19:18;9.35;;;7.53;;
26086;SDS011;13851;43.434;28.338;2022-10-16T07:21:44;7.40;;;5.13;;
26086;SDS011;13851;43.434;28.338;2022-10-16T07:24:13;7.72;;;4.03;;
26086;SDS011;13851;43.434;28.338;2022-10-16T07:29:12;6.90;;;4.13;;
26086;SDS011;13851;43.434;28.338;2022-10-16T07:31:42;7.65;;;4.90;;
26086;SDS011;13851;43.434;28.338;2022-10-16T07:34:08;7.05;;;3.72;;
26086;SDS011;13851;43.434;28.338;2022-10-16T07:36:34;5.50;;;4.00;;
26086;SDS011;13851;43.434;28.338;2022-10-16T07:38:59;8.38;;;4.18;;
26086;SDS011;13851;43.434;28.338;2022-10-16T07:41:25;10.85;;;4.80;;
26086;SDS011;13851;43.434;28.338;2022-10-16T07:43:51;5.93;;;4.18;;
26086;SDS011;13851;43.434;28.338;2022-10-16T07:46:21;5.97;;;4.00;;
26086;SDS011;13851;43.434;28.338;2022-10-16T07:48:47;8.70;;;3.90;;
26086;SDS011;13851;43.434;28.338;2022-10-16T07:51:15;5.38;;;3.67;;
26086;SDS011;13851;43.434;28.338;2022-10-16T07:53:42;6.93;;;3.42;;
26086;SDS011;13851;43.434;28.338;2022-10-16T07:56:08;7.57;;;4.30;;
26086;SDS011;13851;43.434;28.338;2022-10-16T07:58:33;5.22;;;3.58;;
26086;SDS011;13851;43.434;28.338;2022-10-16T08:01:06;5.65;;;3.70;;
26086;SDS011;13851;43.434;28.338;2022-10-16T08:03:33;8.05;;;3.97;;
26086;SDS011;13851;43.434;28.338;2022-10-16T08:05:59;6.15;;;3.80;;
26086;SDS011;13851;43.434;28.338;2022-10-16T08:08:25;5.40;;;3.63;;
26086;SDS011;13851;43.434;28.338;2022-10-16T08:10:51;6.57;;;3.80;;
26086;SDS011;13851;43.434;28.338;2022-10-16T08:13:17;6.88;;;3.20;;
26086;SDS011;13851;43.434;28.338;2022-10-16T08:15:43;6.75;;;3.53;;
26086;SDS011;13851;43.434;28.338;2022-10-16T08:18:10;8.75;;;3.80;;
26086;SDS011;13851;43.434;28.338;2022-10-16T08:20:36;9.65;;;4.40;;
26086;SDS011;13851;43.434;28.338;2022-10-16T08:23:02;6.55;;;3.38;;
26086;SDS011;13851;43.434;28.338;2022-10-16T08:25:29;7.68;;;4.00;;
26086;SDS011;13851;43.434;28.338;2022-10-16T08:27:54;7.53;;;3.60;;
26086;SDS011;13851;43.434;28.338;2022-10-16T08:30:22;7.25;;;3.67;;
26086;SDS011;13851;43.434;28.338;2022-10-16T08:32:49;9.85;;;4.00;;
26086;SDS011;13851;43.434;28.338;2022-10-16T08:35:16;5.10;;;3.72;;
26086;SDS011;13851;43.434;28.338;2022-10-16T08:37:44;6.85;;;4.05;;
26086;SDS011;13851;43.434;28.338;2022-10-16T08:40:16;6.20;;;4.07;;
26086;SDS011;13851;43.434;28.338;2022-10-16T08:48:51;8.00;;;3.63;;
26086;SDS011;13851;43.434;28.338;2022-10-16T08:51:24;7.30;;;3.35;;
26086;SDS011;13851;43.434;28.338;2022-10-16T08:54:05;5.38;;;3.42;;
26086;SDS011;13851;43.434;28.338;2022-10-16T08:56:40;8.45;;;5.10;;
26086;SDS011;13851;43.434;28.338;2022-10-16T08:59:06;5.55;;;3.65;;
26086;SDS011;13851;43.434;28.338;2022-10-16T09:01:40;12.23;;;3.90;;
26086;SDS011;13851;43.434;28.338;2022-10-16T09:18:15;10.30;;;3.70;;
26086;SDS011;13851;43.434;28.338;2022-10-16T09:23:31;7.00;;;4.07;;
26086;SDS011;13851;43.434;28.338;2022-10-16T09:26:00;5.00;;;3.00;;
26086;SDS011;13851;43.434;28.338;2022-10-16T09:28:28;10.20;;;3.60;;
26086;SDS011;13851;43.434;28.338;2022-10-16T09:30:53;10.43;;;5.97;;
26086;SDS011;13851;43.434;28.338;2022-10-16T09:33:20;5.68;;;2.88;;
26086;SDS011;13851;43.434;28.338;2022-10-16T09:35:53;8.43;;;3.15;;
26086;SDS011;13851;43.434;28.338;2022-10-16T09:38:39;6.82;;;3.38;;
26086;SDS011;13851;43.434;28.338;2022-10-16T09:41:22;6.00;;;3.03;;
26086;SDS011;13851;43.434;28.338;2022-10-16T09:43:54;6.30;;;3.03;;
26086;SDS011;13851;43.434;28.338;2022-10-16T09:46:26;5.75;;;3.17;;
26086;SDS011;13851;43.434;28.338;2022-10-16T09:48:58;6.22;;;3.45;;
26086;SDS011;13851;43.434;28.338;2022-10-16T09:51:29;5.28;;;3.15;;
26086;SDS011;13851;43.434;28.338;2022-10-16T09:54:01;8.98;;;3.20;;
26086;SDS011;13851;43.434;28.338;2022-10-16T09:56:37;8.55;;;3.22;;
26086;SDS011;13851;43.434;28.338;2022-10-16T09:59:14;5.85;;;2.90;;
26086;SDS011;13851;43.434;28.338;2022-10-16T10:01:56;5.80;;;2.78;;
26086;SDS011;13851;43.434;28.338;2022-10-16T10:04:36;9.10;;;2.95;;
26086;SDS011;13851;43.434;28.338;2022-10-16T10:07:04;5.65;;;3.05;;
26086;SDS011;13851;43.434;28.338;2022-10-16T10:09:32;6.13;;;2.92;;
26086;SDS011;13851;43.434;28.338;2022-10-16T10:12:03;6.38;;;2.60;;
26086;SDS011;13851;43.434;28.338;2022-10-16T10:30:27;6.75;;;2.58;;
26086;SDS011;13851;43.434;28.338;2022-10-16T10:43:48;5.43;;;2.70;;
26086;SDS011;13851;43.434;28.338;2022-10-16T10:46:23;4.88;;;2.22;;
26086;SDS011;13851;43.434;28.338;2022-10-16T10:49:22;4.75;;;2.90;;
26086;SDS011;13851;43.434;28.338;2022-10-16T10:55:09;2.63;;;2.00;;
26086;SDS011;13851;43.434;28.338;2022-10-16T10:57:54;4.80;;;2.47;;
26086;SDS011;13851;43.434;28.338;2022-10-16T11:00:51;4.97;;;2.40;;
26086;SDS011;13851;43.434;28.338;2022-10-16T11:06:20;6.45;;;2.22;;
26086;SDS011;13851;43.434;28.338;2022-10-16T11:11:25;4.82;;;2.78;;
26086;SDS011;13851;43.434;28.338;2022-10-16T11:14:00;4.82;;;2.60;;
26086;SDS011;13851;43.434;28.338;2022-10-16T11:16:48;3.10;;;2.50;;
26086;SDS011;13851;43.434;28.338;2022-10-16T11:22:20;3.70;;;2.05;;
26086;SDS011;13851;43.434;28.338;2022-10-16T11:25:24;3.03;;;1.95;;
26086;SDS011;13851;43.434;28.338;2022-10-16T11:28:03;3.67;;;2.20;;
26086;SDS011;13851;43.434;28.338;2022-10-16T11:36:35;4.95;;;2.45;;
26086;SDS011;13851;43.434;28.338;2022-10-16T11:42:27;5.00;;;2.75;;
26086;SDS011;13851;43.434;28.338;2022-10-16T11:52:54;5.93;;;2.28;;
26086;SDS011;13851;43.434;28.338;2022-10-16T11:55:23;5.47;;;2.35;;
26086;SDS011;13851;43.434;28.338;2022-10-16T12:03:20;5.65;;;2.50;;
26086;SDS011;13851;43.434;28.338;2022-10-16T12:08:31;3.72;;;2.38;;
26086;SDS011;13851;43.434;28.338;2022-10-16T12:11:59;8.20;;;2.15;;
26086;SDS011;13851;43.434;28.338;2022-10-16T12:16:59;4.45;;;2.22;;
26086;SDS011;13851;43.434;28.338;2022-10-16T12:19:29;3.15;;;2.20;;
26086;SDS011;13851;43.434;28.338;2022-10-16T12:21:56;5.07;;;2.38;;
26086;SDS011;13851;43.434;28.338;2022-10-16T12:24:57;5.68;;;2.55;;
26086;SDS011;13851;43.434;28.338;2022-10-16T12:27:22;3.20;;;2.00;;
26086;SDS011;13851;43.434;28.338;2022-10-16T12:30:03;5.85;;;2.50;;
26086;SDS011;13851;43.434;28.338;2022-10-16T12:32:34;4.30;;;2.60;;
26086;SDS011;13851;43.434;28.338;2022-10-16T12:35:03;4.63;;;2.63;;
26086;SDS011;13851;43.434;28.338;2022-10-16T12:37:31;4.10;;;2.53;;
26086;SDS011;13851;43.434;28.338;2022-10-16T12:39:59;3.85;;;2.78;;
26086;SDS011;13851;43.434;28.338;2022-10-16T12:42:36;6.38;;;3.58;;
26086;SDS011;13851;43.434;28.338;2022-10-16T12:45:12;6.70;;;3.58;;
26086;SDS011;13851;43.434;28.338;2022-10-16T12:47:50;4.57;;;3.58;;
26086;SDS011;13851;43.434;28.338;2022-10-16T12:53:03;7.15;;;3.17;;
26086;SDS011;13851;43.434;28.338;2022-10-16T12:55:48;3.88;;;3.08;;
26086;SDS011;13851;43.434;28.338;2022-10-16T13:01:24;5.60;;;3.92;;
26086;SDS011;13851;43.434;28.338;2022-10-16T13:04:21;6.38;;;3.47;;
26086;SDS011;13851;43.434;28.338;2022-10-16T13:07:14;6.10;;;3.80;;
26086;SDS011;13851;43.434;28.338;2022-10-16T13:10:15;7.25;;;3.60;;
26086;SDS011;13851;43.434;28.338;2022-10-16T13:30:13;9.05;;;4.55;;
26086;SDS011;13851;43.434;28.338;2022-10-16T13:32:46;5.60;;;4.35;;
26086;SDS011;13851;43.434;28.338;2022-10-16T13:35:18;6.05;;;4.85;;
26086;SDS011;13851;43.434;28.338;2022-10-16T13:37:45;6.32;;;4.38;;
26086;SDS011;13851;43.434;28.338;2022-10-16T13:40:22;7.35;;;4.72;;
26086;SDS011;13851;43.434;28.338;2022-10-16T13:42:52;10.40;;;4.82;;
26086;SDS011;13851;43.434;28.338;2022-10-16T13:45:25;8.80;;;5.35;;
26086;SDS011;13851;43.434;28.338;2022-10-16T13:48:01;6.85;;;4.80;;
26086;SDS011;13851;43.434;28.338;2022-10-16T13:50:28;7.72;;;5.40;;
26086;SDS011;13851;43.434;28.338;2022-10-16T13:53:03;8.65;;;5.35;;
26086;SDS011;13851;43.434;28.338;2022-10-16T13:55:29;9.00;;;5.63;;
26086;SDS011;13851;43.434;28.338;2022-10-16T13:58:11;10.05;;;5.13;;
26086;SDS011;13851;43.434;28.338;2022-10-16T14:00:38;12.20;;;5.63;;
26086;SDS011;13851;43.434;28.338;2022-10-16T14:03:15;7.15;;;5.43;;
26086;SDS011;13851;43.434;28.338;2022-10-16T14:05:46;7.32;;;5.32;;
26086;SDS011;13851;43.434;28.338;2022-10-16T14:08:14;9.15;;;5.85;;
26086;SDS011;13851;43.434;28.338;2022-10-16T14:10:39;8.18;;;5.88;;
26086;SDS011;13851;43.434;28.338;2022-10-16T14:13:06;9.82;;;5.85;;
26086;SDS011;13851;43.434;28.338;2022-10-16T14:15:34;7.85;;;6.15;;
26086;SDS011;13851;43.434;28.338;2022-10-16T14:18:01;7.82;;;6.22;;
26086;SDS011;13851;43.434;28.338;2022-10-16T14:20:28;10.98;;;6.47;;
26086;SDS011;13851;43.434;28.338;2022-10-16T14:23:04;9.80;;;6.28;;
26086;SDS011;13851;43.434;28.338;2022-10-16T14:25:44;8.90;;;6.85;;
26086;SDS011;13851;43.434;28.338;2022-10-16T14:28:21;11.80;;;6.85;;
26086;SDS011;13851;43.434;28.338;2022-10-16T14:30:54;10.40;;;6.68;;
26086;SDS011;13851;43.434;28.338;2022-10-16T14:33:25;13.05;;;7.43;;
26086;SDS011;13851;43.434;28.338;2022-10-16T14:36:03;9.30;;;6.95;;
26086;SDS011;13851;43.434;28.338;2022-10-16T14:38:34;10.57;;;7.55;;
26086;SDS011;13851;43.434;28.338;2022-10-16T14:41:00;8.80;;;7.38;;
26086;SDS011;13851;43.434;28.338;2022-10-16T14:45:58;13.85;;;8.50;;
26086;SDS011;13851;43.434;28.338;2022-10-16T14:48:25;10.18;;;7.93;;
26086;SDS011;13851;43.434;28.338;2022-10-16T14:50:50;10.77;;;7.50;;
26086;SDS011;13851;43.434;28.338;2022-10-16T14:53:16;11.23;;;8.63;;
26086;SDS011;13851;43.434;28.338;2022-10-16T14:55:41;13.50;;;8.70;;
26086;SDS011;13851;43.434;28.338;2022-10-16T14:58:13;11.25;;;9.10;;
26086;SDS011;13851;43.434;28.338;2022-10-16T15:00:41;12.70;;;9.18;;
26086;SDS011;13851;43.434;28.338;2022-10-16T15:03:07;11.30;;;8.80;;
26086;SDS011;13851;43.434;28.338;2022-10-16T15:05:32;13.40;;;8.77;;
26086;SDS011;13851;43.434;28.338;2022-10-16T15:07:58;12.95;;;9.05;;
26086;SDS011;13851;43.434;28.338;2022-10-16T15:10:24;12.82;;;8.85;;
26086;SDS011;13851;43.434;28.338;2022-10-16T15:12:52;12.90;;;8.30;;
26086;SDS011;13851;43.434;28.338;2022-10-16T15:17:55;10.55;;;8.57;;
26086;SDS011;13851;43.434;28.338;2022-10-16T15:20:22;12.63;;;8.00;;
26086;SDS011;13851;43.434;28.338;2022-10-16T15:22:49;12.80;;;8.48;;
26086;SDS011;13851;43.434;28.338;2022-10-16T15:25:31;10.75;;;8.00;;
26086;SDS011;13851;43.434;28.338;2022-10-16T15:28:00;10.93;;;7.78;;
26086;SDS011;13851;43.434;28.338;2022-10-16T15:30:26;12.80;;;7.68;;
26086;SDS011;13851;43.434;28.338;2022-10-16T15:32:52;9.93;;;7.55;;
26086;SDS011;13851;43.434;28.338;2022-10-16T15:35:18;9.88;;;6.47;;
26086;SDS011;13851;43.434;28.338;2022-10-16T15:37:43;9.05;;;6.40;;
26086;SDS011;13851;43.434;28.338;2022-10-16T15:40:09;10.93;;;6.10;;
26086;SDS011;13851;43.434;28.338;2022-10-16T15:42:35;7.72;;;5.25;;
26086;SDS011;13851;43.434;28.338;2022-10-16T15:45:04;5.35;;;4.50;;
26086;SDS011;13851;43.434;28.338;2022-10-16T15:47:38;8.32;;;4.80;;
26086;SDS011;13851;43.434;28.338;2022-10-16T15:50:05;6.05;;;4.30;;
26086;SDS011;13851;43.434;28.338;2022-10-16T15:52:31;6.93;;;5.05;;
26086;SDS011;13851;43.434;28.338;2022-10-16T15:54:57;7.95;;;5.30;;
26086;SDS011;13851;43.434;28.338;2022-10-16T15:57:23;9.68;;;6.45;;
26086;SDS011;13851;43.434;28.338;2022-10-16T15:59:49;9.27;;;4.57;;
26086;SDS011;13851;43.434;28.338;2022-10-16T16:02:15;5.57;;;4.03;;
26086;SDS011;13851;43.434;28.338;2022-10-16T16:04:41;6.70;;;4.35;;
26086;SDS011;13851;43.434;28.338;2022-10-16T16:07:07;6.68;;;4.57;;
26086;SDS011;13851;43.434;28.338;2022-10-16T16:09:32;9.45;;;4.95;;
26086;SDS011;13851;43.434;28.338;2022-10-16T16:11:58;8.02;;;4.70;;
26086;SDS011;13851;43.434;28.338;2022-10-16T16:14:26;9.45;;;4.43;;
26086;SDS011;13851;43.434;28.338;2022-10-16T16:16:53;7.65;;;4.68;;
26086;SDS011;13851;43.434;28.338;2022-10-16T16:19:19;8.27;;;4.57;;
26086;SDS011;13851;43.434;28.338;2022-10-16T16:21:46;6.05;;;4.68;;
26086;SDS011;13851;43.434;28.338;2022-10-16T16:24:18;7.10;;;4.78;;
26086;SDS011;13851;43.434;28.338;2022-10-16T16:26:45;7.93;;;4.70;;
26086;SDS011;13851;43.434;28.338;2022-10-16T16:29:12;6.25;;;5.13;;
26086;SDS011;13851;43.434;28.338;2022-10-16T16:31:39;7.63;;;4.70;;
26086;SDS011;13851;43.434;28.338;2022-10-16T16:34:05;10.43;;;5.60;;
26086;SDS011;13851;43.434;28.338;2022-10-16T16:36:31;9.52;;;5.00;;
26086;SDS011;13851;43.434;28.338;2022-10-16T16:38:57;9.00;;;4.80;;
26086;SDS011;13851;43.434;28.338;2022-10-16T16:41:28;6.57;;;4.85;;
26086;SDS011;13851;43.434;28.338;2022-10-16T16:43:55;9.75;;;4.95;;
26086;SDS011;13851;43.434;28.338;2022-10-16T16:46:28;8.95;;;4.82;;
26086;SDS011;13851;43.434;28.338;2022-10-16T16:48:58;8.30;;;5.20;;
26086;SDS011;13851;43.434;28.338;2022-10-16T16:51:23;7.68;;;5.15;;
26086;SDS011;13851;43.434;28.338;2022-10-16T16:53:50;7.97;;;5.20;;
26086;SDS011;13851;43.434;28.338;2022-10-16T16:56:17;8.98;;;4.70;;
26086;SDS011;13851;43.434;28.338;2022-10-16T16:58:46;19.25;;;5.75;;
26086;SDS011;13851;43.434;28.338;2022-10-16T17:01:16;7.50;;;5.25;;
26086;SDS011;13851;43.434;28.338;2022-10-16T17:03:42;9.68;;;7.53;;
26086;SDS011;13851;43.434;28.338;2022-10-16T17:06:14;11.77;;;4.80;;